sensor_id;sensor_type;location;lat;lon;timestamp;P1;durP1;ratioP1;P2;durP2;ratioP2
82401;SDS011;72040;55.842;37.384;2023-08-24T00:00:38;4.35;;;3.67;;
82401;SDS011;72040;55.842;37.384;2023-08-24T00:03:04;4.78;;;2.78;;
82401;SDS011;72040;55.842;37.384;2023-08-24T00:05:33;4.85;;;3.63;;
82401;SDS011;72040;55.842;37.384;2023-08-24T00:08:08;4.85;;;4.35;;
82401;SDS011;72040;55.842;37.384;2023-08-24T00:10:35;5.28;;;4.65;;
82401;SDS011;72040;55.842;37.384;2023-08-24T00:13:01;7.30;;;4.20;;
82401;SDS011;72040;55.842;37.384;2023-08-24T00:15:27;5.07;;;3.90;;
82401;SDS011;72040;55.842;37.384;2023-08-24T00:17:54;5.90;;;4.10;;
82401;SDS011;72040;55.842;37.384;2023-08-24T00:20:20;6.38;;;4.35;;
82401;SDS011;72040;55.842;37.384;2023-08-24T00:22:46;7.45;;;4.53;;
82401;SDS011;72040;55.842;37.384;2023-08-24T00:25:11;5.68;;;4.30;;
82401;SDS011;72040;55.842;37.384;2023-08-24T00:27:37;5.80;;;4.60;;
82401;SDS011;72040;55.842;37.384;2023-08-24T00:30:03;6.88;;;4.18;;
82401;SDS011;72040;55.842;37.384;2023-08-24T00:32:29;4.22;;;3.83;;
82401;SDS011;72040;55.842;37.384;2023-08-24T00:34:58;5.00;;;4.32;;
82401;SDS011;72040;55.842;37.384;2023-08-24T00:37:24;6.57;;;2.40;;
82401;SDS011;72040;55.842;37.384;2023-08-24T00:39:49;4.85;;;4.32;;
82401;SDS011;72040;55.842;37.384;2023-08-24T00:42:15;4.05;;;2.90;;
82401;SDS011;72040;55.842;37.384;2023-08-24T00:44:40;4.95;;;3.50;;
82401;SDS011;72040;55.842;37.384;2023-08-24T00:47:06;5.30;;;3.75;;
82401;SDS011;72040;55.842;37.384;2023-08-24T00:49:33;4.10;;;3.45;;
82401;SDS011;72040;55.842;37.384;2023-08-24T00:51:59;3.85;;;2.67;;
82401;SDS011;72040;55.842;37.384;2023-08-24T00:54:26;3.45;;;2.95;;
82401;SDS011;72040;55.842;37.384;2023-08-24T00:56:52;3.83;;;2.80;;
82401;SDS011;72040;55.842;37.384;2023-08-24T00:59:19;3.75;;;2.92;;
82401;SDS011;72040;55.842;37.384;2023-08-24T01:01:46;4.00;;;3.60;;
82401;SDS011;72040;55.842;37.384;2023-08-24T01:04:12;3.05;;;2.33;;
82401;SDS011;72040;55.842;37.384;2023-08-24T01:06:38;4.55;;;3.78;;
82401;SDS011;72040;55.842;37.384;2023-08-24T01:09:04;4.22;;;2.97;;
82401;SDS011;72040;55.842;37.384;2023-08-24T01:11:49;3.38;;;3.08;;
82401;SDS011;72040;55.842;37.384;2023-08-24T01:17:13;3.40;;;3.08;;
82401;SDS011;72040;55.842;37.384;2023-08-24T01:19:41;6.60;;;3.97;;
82401;SDS011;72040;55.842;37.384;2023-08-24T01:27:33;4.15;;;3.20;;
82401;SDS011;72040;55.842;37.384;2023-08-24T01:30:00;4.45;;;1.95;;
82401;SDS011;72040;55.842;37.384;2023-08-24T01:32:32;3.65;;;2.40;;
82401;SDS011;72040;55.842;37.384;2023-08-24T01:34:58;4.90;;;3.00;;
82401;SDS011;72040;55.842;37.384;2023-08-24T01:37:25;4.50;;;3.47;;
82401;SDS011;72040;55.842;37.384;2023-08-24T01:39:59;3.25;;;2.88;;
82401;SDS011;72040;55.842;37.384;2023-08-24T01:42:33;3.53;;;3.22;;
82401;SDS011;72040;55.842;37.384;2023-08-24T01:45:01;4.03;;;3.17;;
82401;SDS011;72040;55.842;37.384;2023-08-24T01:47:30;3.40;;;3.00;;
82401;SDS011;72040;55.842;37.384;2023-08-24T01:49:56;4.38;;;2.63;;
82401;SDS011;72040;55.842;37.384;2023-08-24T01:52:22;3.45;;;2.92;;
82401;SDS011;72040;55.842;37.384;2023-08-24T01:54:48;4.15;;;3.13;;
82401;SDS011;72040;55.842;37.384;2023-08-24T01:57:14;3.58;;;3.25;;
82401;SDS011;72040;55.842;37.384;2023-08-24T01:59:39;4.18;;;3.03;;
82401;SDS011;72040;55.842;37.384;2023-08-24T02:02:05;3.35;;;2.90;;
82401;SDS011;72040;55.842;37.384;2023-08-24T02:04:31;3.22;;;2.65;;
82401;SDS011;72040;55.842;37.384;2023-08-24T02:06:56;3.88;;;2.65;;
82401;SDS011;72040;55.842;37.384;2023-08-24T02:09:22;3.30;;;2.60;;
82401;SDS011;72040;55.842;37.384;2023-08-24T02:11:47;3.65;;;2.55;;
82401;SDS011;72040;55.842;37.384;2023-08-24T02:14:13;3.88;;;2.88;;
82401;SDS011;72040;55.842;37.384;2023-08-24T02:16:38;3.58;;;2.35;;
82401;SDS011;72040;55.842;37.384;2023-08-24T02:19:04;3.25;;;2.67;;
82401;SDS011;72040;55.842;37.384;2023-08-24T02:21:30;6.40;;;3.40;;
82401;SDS011;72040;55.842;37.384;2023-08-24T02:23:56;3.58;;;2.92;;
82401;SDS011;72040;55.842;37.384;2023-08-24T02:26:21;2.80;;;2.50;;
82401;SDS011;72040;55.842;37.384;2023-08-24T02:28:47;3.17;;;2.30;;
82401;SDS011;72040;55.842;37.384;2023-08-24T02:31:12;3.03;;;2.30;;
82401;SDS011;72040;55.842;37.384;2023-08-24T02:33:38;3.25;;;2.28;;
82401;SDS011;72040;55.842;37.384;2023-08-24T02:36:03;3.80;;;2.78;;
82401;SDS011;72040;55.842;37.384;2023-08-24T02:38:29;4.60;;;2.55;;
82401;SDS011;72040;55.842;37.384;2023-08-24T02:41:05;3.42;;;2.75;;
82401;SDS011;72040;55.842;37.384;2023-08-24T02:43:32;4.32;;;2.58;;
82401;SDS011;72040;55.842;37.384;2023-08-24T02:46:06;3.00;;;2.58;;
82401;SDS011;72040;55.842;37.384;2023-08-24T02:48:33;3.95;;;2.47;;
82401;SDS011;72040;55.842;37.384;2023-08-24T02:50:59;2.58;;;2.33;;
82401;SDS011;72040;55.842;37.384;2023-08-24T02:53:26;2.70;;;2.25;;
82401;SDS011;72040;55.842;37.384;2023-08-24T02:55:52;4.05;;;1.90;;
82401;SDS011;72040;55.842;37.384;2023-08-24T02:58:18;3.47;;;2.35;;
82401;SDS011;72040;55.842;37.384;2023-08-24T03:00:44;3.13;;;2.50;;
82401;SDS011;72040;55.842;37.384;2023-08-24T03:03:10;2.45;;;1.92;;
82401;SDS011;72040;55.842;37.384;2023-08-24T03:05:36;3.70;;;2.35;;
82401;SDS011;72040;55.842;37.384;2023-08-24T03:08:02;3.50;;;2.25;;
82401;SDS011;72040;55.842;37.384;2023-08-24T03:10:31;2.60;;;1.95;;
82401;SDS011;72040;55.842;37.384;2023-08-24T03:12:56;2.97;;;1.30;;
82401;SDS011;72040;55.842;37.384;2023-08-24T03:15:22;2.95;;;2.65;;
82401;SDS011;72040;55.842;37.384;2023-08-24T03:17:48;3.63;;;2.97;;
82401;SDS011;72040;55.842;37.384;2023-08-24T03:20:14;4.00;;;2.38;;
82401;SDS011;72040;55.842;37.384;2023-08-24T03:22:41;3.03;;;2.38;;
82401;SDS011;72040;55.842;37.384;2023-08-24T03:25:07;4.70;;;2.42;;
82401;SDS011;72040;55.842;37.384;2023-08-24T03:27:32;4.43;;;2.42;;
82401;SDS011;72040;55.842;37.384;2023-08-24T03:29:58;2.83;;;2.00;;
82401;SDS011;72040;55.842;37.384;2023-08-24T03:32:23;16.83;;;3.33;;
82401;SDS011;72040;55.842;37.384;2023-08-24T03:34:49;3.28;;;2.65;;
82401;SDS011;72040;55.842;37.384;2023-08-24T03:37:15;3.63;;;2.55;;
82401;SDS011;72040;55.842;37.384;2023-08-24T03:39:40;4.05;;;3.08;;
82401;SDS011;72040;55.842;37.384;2023-08-24T03:42:06;3.47;;;2.15;;
82401;SDS011;72040;55.842;37.384;2023-08-24T03:44:32;3.83;;;3.22;;
82401;SDS011;72040;55.842;37.384;2023-08-24T03:46:59;3.85;;;2.35;;
82401;SDS011;72040;55.842;37.384;2023-08-24T03:49:25;3.65;;;2.67;;
82401;SDS011;72040;55.842;37.384;2023-08-24T03:51:51;6.03;;;3.55;;
82401;SDS011;72040;55.842;37.384;2023-08-24T03:54:16;3.88;;;3.38;;
82401;SDS011;72040;55.842;37.384;2023-08-24T03:56:42;3.50;;;3.00;;
82401;SDS011;72040;55.842;37.384;2023-08-24T03:59:08;6.13;;;3.30;;
82401;SDS011;72040;55.842;37.384;2023-08-24T04:01:34;5.97;;;2.78;;
82401;SDS011;72040;55.842;37.384;2023-08-24T04:03:59;3.25;;;1.77;;
82401;SDS011;72040;55.842;37.384;2023-08-24T04:06:25;4.32;;;3.10;;
82401;SDS011;72040;55.842;37.384;2023-08-24T04:08:50;4.40;;;3.03;;
82401;SDS011;72040;55.842;37.384;2023-08-24T04:11:17;3.33;;;2.83;;
82401;SDS011;72040;55.842;37.384;2023-08-24T04:13:42;4.47;;;2.83;;
82401;SDS011;72040;55.842;37.384;2023-08-24T04:16:08;3.60;;;3.03;;
82401;SDS011;72040;55.842;37.384;2023-08-24T04:18:33;3.50;;;2.78;;
82401;SDS011;72040;55.842;37.384;2023-08-24T04:21:00;5.28;;;3.08;;
82401;SDS011;72040;55.842;37.384;2023-08-24T04:23:26;3.58;;;2.72;;
82401;SDS011;72040;55.842;37.384;2023-08-24T04:25:53;3.53;;;2.67;;
82401;SDS011;72040;55.842;37.384;2023-08-24T04:28:19;4.93;;;3.38;;
82401;SDS011;72040;55.842;37.384;2023-08-24T04:31:03;3.80;;;3.05;;
82401;SDS011;72040;55.842;37.384;2023-08-24T04:33:29;3.63;;;3.03;;
82401;SDS011;72040;55.842;37.384;2023-08-24T04:35:55;5.10;;;4.25;;
82401;SDS011;72040;55.842;37.384;2023-08-24T04:38:20;4.93;;;3.40;;
82401;SDS011;72040;55.842;37.384;2023-08-24T04:40:53;4.07;;;3.45;;
82401;SDS011;72040;55.842;37.384;2023-08-24T04:43:20;5.15;;;2.20;;
82401;SDS011;72040;55.842;37.384;2023-08-24T04:45:48;5.32;;;3.65;;
82401;SDS011;72040;55.842;37.384;2023-08-24T04:48:16;8.10;;;4.93;;
82401;SDS011;72040;55.842;37.384;2023-08-24T04:53:08;5.35;;;3.40;;
82401;SDS011;72040;55.842;37.384;2023-08-24T04:55:34;3.75;;;2.97;;
82401;SDS011;72040;55.842;37.384;2023-08-24T04:58:00;9.07;;;3.38;;
82401;SDS011;72040;55.842;37.384;2023-08-24T05:00:25;5.47;;;3.28;;
82401;SDS011;72040;55.842;37.384;2023-08-24T05:02:52;4.60;;;2.95;;
82401;SDS011;72040;55.842;37.384;2023-08-24T05:05:18;7.53;;;3.20;;
82401;SDS011;72040;55.842;37.384;2023-08-24T05:07:43;10.02;;;4.00;;
82401;SDS011;72040;55.842;37.384;2023-08-24T05:10:09;4.10;;;2.85;;
82401;SDS011;72040;55.842;37.384;2023-08-24T05:12:34;3.97;;;3.47;;
82401;SDS011;72040;55.842;37.384;2023-08-24T05:15:03;3.55;;;3.20;;
82401;SDS011;72040;55.842;37.384;2023-08-24T05:17:29;4.47;;;3.38;;
82401;SDS011;72040;55.842;37.384;2023-08-24T05:19:57;5.18;;;3.10;;
82401;SDS011;72040;55.842;37.384;2023-08-24T05:22:24;4.65;;;3.25;;
82401;SDS011;72040;55.842;37.384;2023-08-24T05:24:49;3.42;;;2.00;;
82401;SDS011;72040;55.842;37.384;2023-08-24T05:27:15;6.32;;;3.25;;
82401;SDS011;72040;55.842;37.384;2023-08-24T05:29:41;6.60;;;3.13;;
82401;SDS011;72040;55.842;37.384;2023-08-24T05:32:07;5.28;;;3.58;;
82401;SDS011;72040;55.842;37.384;2023-08-24T05:34:33;5.35;;;3.22;;
82401;SDS011;72040;55.842;37.384;2023-08-24T05:36:58;6.03;;;2.78;;
82401;SDS011;72040;55.842;37.384;2023-08-24T05:39:24;4.05;;;3.22;;
82401;SDS011;72040;55.842;37.384;2023-08-24T05:41:51;4.22;;;3.15;;
82401;SDS011;72040;55.842;37.384;2023-08-24T05:44:17;4.93;;;3.15;;
82401;SDS011;72040;55.842;37.384;2023-08-24T05:46:46;5.72;;;3.42;;
82401;SDS011;72040;55.842;37.384;2023-08-24T05:49:12;4.40;;;3.90;;
82401;SDS011;72040;55.842;37.384;2023-08-24T05:51:37;4.30;;;3.35;;
82401;SDS011;72040;55.842;37.384;2023-08-24T05:54:03;5.30;;;3.45;;
82401;SDS011;72040;55.842;37.384;2023-08-24T05:56:32;5.15;;;4.00;;
82401;SDS011;72040;55.842;37.384;2023-08-24T05:58:58;5.60;;;4.65;;
82401;SDS011;72040;55.842;37.384;2023-08-24T06:01:24;7.72;;;4.20;;
82401;SDS011;72040;55.842;37.384;2023-08-24T06:03:50;7.82;;;3.72;;
82401;SDS011;72040;55.842;37.384;2023-08-24T06:06:16;6.57;;;4.47;;
82401;SDS011;72040;55.842;37.384;2023-08-24T06:08:42;6.78;;;3.55;;
82401;SDS011;72040;55.842;37.384;2023-08-24T06:11:09;7.45;;;4.47;;
82401;SDS011;72040;55.842;37.384;2023-08-24T06:13:35;6.10;;;5.00;;
82401;SDS011;72040;55.842;37.384;2023-08-24T06:16:00;5.20;;;4.65;;
82401;SDS011;72040;55.842;37.384;2023-08-24T06:18:29;6.82;;;5.13;;
82401;SDS011;72040;55.842;37.384;2023-08-24T06:20:55;5.95;;;3.80;;
82401;SDS011;72040;55.842;37.384;2023-08-24T06:23:22;7.00;;;5.60;;
82401;SDS011;72040;55.842;37.384;2023-08-24T06:25:48;8.07;;;5.32;;
82401;SDS011;72040;55.842;37.384;2023-08-24T06:28:13;7.13;;;5.20;;
82401;SDS011;72040;55.842;37.384;2023-08-24T06:30:41;9.45;;;6.10;;
82401;SDS011;72040;55.842;37.384;2023-08-24T06:33:08;8.70;;;6.78;;
82401;SDS011;72040;55.842;37.384;2023-08-24T06:35:36;8.73;;;6.85;;
82401;SDS011;72040;55.842;37.384;2023-08-24T06:38:03;11.25;;;8.60;;
82401;SDS011;72040;55.842;37.384;2023-08-24T06:40:30;8.70;;;5.68;;
82401;SDS011;72040;55.842;37.384;2023-08-24T06:42:57;6.80;;;5.22;;
82401;SDS011;72040;55.842;37.384;2023-08-24T06:45:22;8.20;;;6.10;;
82401;SDS011;72040;55.842;37.384;2023-08-24T06:47:48;8.45;;;6.40;;
82401;SDS011;72040;55.842;37.384;2023-08-24T06:50:14;9.98;;;6.53;;
82401;SDS011;72040;55.842;37.384;2023-08-24T06:52:40;7.93;;;4.65;;
82401;SDS011;72040;55.842;37.384;2023-08-24T06:55:07;14.60;;;6.55;;
82401;SDS011;72040;55.842;37.384;2023-08-24T06:57:34;10.60;;;6.28;;
82401;SDS011;72040;55.842;37.384;2023-08-24T07:00:01;8.80;;;5.68;;
82401;SDS011;72040;55.842;37.384;2023-08-24T07:02:31;11.80;;;4.72;;
82401;SDS011;72040;55.842;37.384;2023-08-24T07:04:58;12.30;;;5.97;;
82401;SDS011;72040;55.842;37.384;2023-08-24T07:07:28;9.65;;;6.55;;
82401;SDS011;72040;55.842;37.384;2023-08-24T07:09:54;6.40;;;4.60;;
82401;SDS011;72040;55.842;37.384;2023-08-24T07:12:19;7.45;;;5.15;;
82401;SDS011;72040;55.842;37.384;2023-08-24T07:14:45;7.22;;;5.43;;
82401;SDS011;72040;55.842;37.384;2023-08-24T07:17:10;7.68;;;5.28;;
82401;SDS011;72040;55.842;37.384;2023-08-24T07:19:38;11.15;;;5.10;;
82401;SDS011;72040;55.842;37.384;2023-08-24T07:22:03;7.30;;;5.18;;
82401;SDS011;72040;55.842;37.384;2023-08-24T07:24:29;8.00;;;5.68;;
82401;SDS011;72040;55.842;37.384;2023-08-24T07:26:56;7.07;;;4.75;;
82401;SDS011;72040;55.842;37.384;2023-08-24T07:29:21;8.07;;;5.45;;
82401;SDS011;72040;55.842;37.384;2023-08-24T07:31:48;7.63;;;5.55;;
82401;SDS011;72040;55.842;37.384;2023-08-24T07:34:14;8.57;;;5.57;;
82401;SDS011;72040;55.842;37.384;2023-08-24T07:36:41;6.65;;;4.75;;
82401;SDS011;72040;55.842;37.384;2023-08-24T07:39:08;5.47;;;3.25;;
82401;SDS011;72040;55.842;37.384;2023-08-24T07:41:33;9.05;;;4.43;;
82401;SDS011;72040;55.842;37.384;2023-08-24T07:43:59;7.57;;;4.85;;
82401;SDS011;72040;55.842;37.384;2023-08-24T07:46:25;6.45;;;4.65;;
82401;SDS011;72040;55.842;37.384;2023-08-24T07:48:50;6.47;;;5.82;;
82401;SDS011;72040;55.842;37.384;2023-08-24T07:51:16;6.75;;;3.90;;
82401;SDS011;72040;55.842;37.384;2023-08-24T07:53:44;8.35;;;4.88;;
82401;SDS011;72040;55.842;37.384;2023-08-24T07:56:11;8.90;;;5.20;;
82401;SDS011;72040;55.842;37.384;2023-08-24T07:58:36;5.88;;;4.60;;
82401;SDS011;72040;55.842;37.384;2023-08-24T08:01:05;4.90;;;4.00;;
82401;SDS011;72040;55.842;37.384;2023-08-24T08:03:30;5.65;;;4.28;;
82401;SDS011;72040;55.842;37.384;2023-08-24T08:05:56;8.32;;;5.13;;
82401;SDS011;72040;55.842;37.384;2023-08-24T08:08:23;6.55;;;4.70;;
82401;SDS011;72040;55.842;37.384;2023-08-24T08:10:55;10.27;;;4.55;;
82401;SDS011;72040;55.842;37.384;2023-08-24T08:13:22;8.88;;;4.80;;
82401;SDS011;72040;55.842;37.384;2023-08-24T08:15:48;9.65;;;3.60;;
82401;SDS011;72040;55.842;37.384;2023-08-24T08:18:14;10.13;;;5.03;;
82401;SDS011;72040;55.842;37.384;2023-08-24T08:20:39;5.45;;;3.97;;
82401;SDS011;72040;55.842;37.384;2023-08-24T08:23:05;6.85;;;4.18;;
82401;SDS011;72040;55.842;37.384;2023-08-24T08:25:31;6.85;;;3.88;;
82401;SDS011;72040;55.842;37.384;2023-08-24T08:27:57;4.93;;;2.70;;
82401;SDS011;72040;55.842;37.384;2023-08-24T08:30:22;8.82;;;4.20;;
82401;SDS011;72040;55.842;37.384;2023-08-24T08:32:48;5.15;;;3.92;;
82401;SDS011;72040;55.842;37.384;2023-08-24T08:35:16;5.15;;;4.47;;
82401;SDS011;72040;55.842;37.384;2023-08-24T08:37:42;5.70;;;4.15;;
82401;SDS011;72040;55.842;37.384;2023-08-24T08:40:09;4.88;;;3.90;;
82401;SDS011;72040;55.842;37.384;2023-08-24T08:42:35;6.10;;;4.47;;
82401;SDS011;72040;55.842;37.384;2023-08-24T08:45:02;5.13;;;3.83;;
82401;SDS011;72040;55.842;37.384;2023-08-24T08:47:30;5.32;;;4.40;;
82401;SDS011;72040;55.842;37.384;2023-08-24T08:49:56;5.45;;;4.10;;
82401;SDS011;72040;55.842;37.384;2023-08-24T08:52:21;9.43;;;5.20;;
82401;SDS011;72040;55.842;37.384;2023-08-24T08:54:50;5.88;;;5.05;;
82401;SDS011;72040;55.842;37.384;2023-08-24T08:57:15;4.70;;;3.97;;
82401;SDS011;72040;55.842;37.384;2023-08-24T08:59:42;5.43;;;3.72;;
82401;SDS011;72040;55.842;37.384;2023-08-24T09:02:08;4.40;;;4.00;;
82401;SDS011;72040;55.842;37.384;2023-08-24T09:04:38;5.18;;;3.65;;
82401;SDS011;72040;55.842;37.384;2023-08-24T09:07:05;7.00;;;4.10;;
82401;SDS011;72040;55.842;37.384;2023-08-24T09:09:35;6.90;;;4.25;;
82401;SDS011;72040;55.842;37.384;2023-08-24T09:12:02;4.18;;;3.22;;
82401;SDS011;72040;55.842;37.384;2023-08-24T09:14:29;4.32;;;3.38;;
82401;SDS011;72040;55.842;37.384;2023-08-24T09:16:54;4.25;;;3.67;;
82401;SDS011;72040;55.842;37.384;2023-08-24T09:19:20;3.92;;;3.33;;
82401;SDS011;72040;55.842;37.384;2023-08-24T09:21:56;4.43;;;3.42;;
82401;SDS011;72040;55.842;37.384;2023-08-24T09:24:31;4.38;;;3.60;;
82401;SDS011;72040;55.842;37.384;2023-08-24T09:26:58;4.68;;;3.83;;
82401;SDS011;72040;55.842;37.384;2023-08-24T09:29:23;4.30;;;3.90;;
82401;SDS011;72040;55.842;37.384;2023-08-24T09:31:52;5.43;;;4.57;;
82401;SDS011;72040;55.842;37.384;2023-08-24T09:34:19;6.20;;;3.72;;
82401;SDS011;72040;55.842;37.384;2023-08-24T09:36:45;5.43;;;3.78;;
82401;SDS011;72040;55.842;37.384;2023-08-24T09:39:11;4.88;;;3.00;;
82401;SDS011;72040;55.842;37.384;2023-08-24T09:41:45;4.85;;;4.35;;
82401;SDS011;72040;55.842;37.384;2023-08-24T09:44:13;4.78;;;3.20;;
82401;SDS011;72040;55.842;37.384;2023-08-24T09:46:39;4.43;;;3.67;;
82401;SDS011;72040;55.842;37.384;2023-08-24T09:49:06;4.00;;;3.42;;
82401;SDS011;72040;55.842;37.384;2023-08-24T09:51:33;4.60;;;2.38;;
82401;SDS011;72040;55.842;37.384;2023-08-24T09:54:01;5.32;;;3.55;;
82401;SDS011;72040;55.842;37.384;2023-08-24T09:56:31;5.75;;;4.07;;
82401;SDS011;72040;55.842;37.384;2023-08-24T09:59:00;4.90;;;3.88;;
82401;SDS011;72040;55.842;37.384;2023-08-24T10:01:34;5.47;;;2.50;;
82401;SDS011;72040;55.842;37.384;2023-08-24T10:04:00;4.28;;;2.72;;
82401;SDS011;72040;55.842;37.384;2023-08-24T10:06:28;5.85;;;2.58;;
82401;SDS011;72040;55.842;37.384;2023-08-24T10:08:57;5.82;;;3.53;;
82401;SDS011;72040;55.842;37.384;2023-08-24T10:11:29;3.72;;;3.28;;
82401;SDS011;72040;55.842;37.384;2023-08-24T10:16:52;5.35;;;3.42;;
82401;SDS011;72040;55.842;37.384;2023-08-24T10:19:18;5.13;;;3.00;;
82401;SDS011;72040;55.842;37.384;2023-08-24T10:21:44;4.20;;;3.65;;
82401;SDS011;72040;55.842;37.384;2023-08-24T10:24:10;3.67;;;2.95;;
82401;SDS011;72040;55.842;37.384;2023-08-24T10:26:36;3.80;;;3.40;;
82401;SDS011;72040;55.842;37.384;2023-08-24T10:29:05;4.05;;;3.42;;
82401;SDS011;72040;55.842;37.384;2023-08-24T10:31:31;3.95;;;2.53;;
82401;SDS011;72040;55.842;37.384;2023-08-24T10:33:58;4.72;;;4.30;;
82401;SDS011;72040;55.842;37.384;2023-08-24T10:36:24;5.15;;;3.20;;
82401;SDS011;72040;55.842;37.384;2023-08-24T10:38:51;4.30;;;3.78;;
82401;SDS011;72040;55.842;37.384;2023-08-24T10:41:21;4.45;;;3.13;;
82401;SDS011;72040;55.842;37.384;2023-08-24T10:43:52;6.25;;;4.07;;
82401;SDS011;72040;55.842;37.384;2023-08-24T10:46:17;4.15;;;3.50;;
82401;SDS011;72040;55.842;37.384;2023-08-24T10:53:47;3.92;;;2.17;;
82401;SDS011;72040;55.842;37.384;2023-08-24T10:56:17;5.40;;;3.30;;
82401;SDS011;72040;55.842;37.384;2023-08-24T10:58:44;6.03;;;3.92;;
82401;SDS011;72040;55.842;37.384;2023-08-24T11:03:48;4.50;;;3.92;;
82401;SDS011;72040;55.842;37.384;2023-08-24T11:06:19;4.15;;;3.75;;
82401;SDS011;72040;55.842;37.384;2023-08-24T11:09:04;5.13;;;2.80;;
82401;SDS011;72040;55.842;37.384;2023-08-24T11:11:31;4.00;;;3.50;;
82401;SDS011;72040;55.842;37.384;2023-08-24T11:14:16;4.18;;;3.35;;
82401;SDS011;72040;55.842;37.384;2023-08-24T11:16:56;4.15;;;3.22;;
82401;SDS011;72040;55.842;37.384;2023-08-24T11:19:24;3.95;;;3.55;;
82401;SDS011;72040;55.842;37.384;2023-08-24T11:21:50;5.32;;;3.38;;
82401;SDS011;72040;55.842;37.384;2023-08-24T11:24:16;3.80;;;3.42;;
82401;SDS011;72040;55.842;37.384;2023-08-24T11:26:44;3.70;;;3.03;;
82401;SDS011;72040;55.842;37.384;2023-08-24T11:29:10;3.45;;;2.50;;
82401;SDS011;72040;55.842;37.384;2023-08-24T11:31:36;4.75;;;3.10;;
82401;SDS011;72040;55.842;37.384;2023-08-24T11:34:03;4.07;;;3.45;;
82401;SDS011;72040;55.842;37.384;2023-08-24T11:39:14;3.88;;;3.25;;
82401;SDS011;72040;55.842;37.384;2023-08-24T11:41:56;3.30;;;2.72;;
82401;SDS011;72040;55.842;37.384;2023-08-24T11:44:25;3.45;;;2.72;;
82401;SDS011;72040;55.842;37.384;2023-08-24T11:46:51;4.03;;;3.13;;
82401;SDS011;72040;55.842;37.384;2023-08-24T11:49:21;3.63;;;3.10;;
82401;SDS011;72040;55.842;37.384;2023-08-24T11:51:47;4.40;;;3.83;;
82401;SDS011;72040;55.842;37.384;2023-08-24T11:54:16;3.58;;;2.95;;
82401;SDS011;72040;55.842;37.384;2023-08-24T11:56:44;4.40;;;3.13;;
82401;SDS011;72040;55.842;37.384;2023-08-24T11:59:14;3.42;;;2.95;;
82401;SDS011;72040;55.842;37.384;2023-08-24T12:01:41;3.95;;;2.20;;
82401;SDS011;72040;55.842;37.384;2023-08-24T12:04:07;4.85;;;3.22;;
82401;SDS011;72040;55.842;37.384;2023-08-24T12:06:33;4.43;;;2.45;;
82401;SDS011;72040;55.842;37.384;2023-08-24T12:08:58;3.47;;;3.13;;
82401;SDS011;72040;55.842;37.384;2023-08-24T12:11:24;3.92;;;3.13;;
82401;SDS011;72040;55.842;37.384;2023-08-24T12:13:54;3.85;;;2.85;;
82401;SDS011;72040;55.842;37.384;2023-08-24T12:16:20;3.63;;;3.33;;
82401;SDS011;72040;55.842;37.384;2023-08-24T12:18:53;3.58;;;2.80;;
82401;SDS011;72040;55.842;37.384;2023-08-24T12:24:00;3.92;;;2.83;;
82401;SDS011;72040;55.842;37.384;2023-08-24T12:26:31;3.75;;;2.65;;
82401;SDS011;72040;55.842;37.384;2023-08-24T12:29:01;7.22;;;2.95;;
82401;SDS011;72040;55.842;37.384;2023-08-24T12:31:33;4.85;;;2.78;;
82401;SDS011;72040;55.842;37.384;2023-08-24T12:34:06;4.10;;;2.75;;
82401;SDS011;72040;55.842;37.384;2023-08-24T12:36:36;5.80;;;2.70;;
82401;SDS011;72040;55.842;37.384;2023-08-24T12:39:03;4.07;;;2.55;;
82401;SDS011;72040;55.842;37.384;2023-08-24T12:41:30;4.15;;;3.10;;
82401;SDS011;72040;55.842;37.384;2023-08-24T12:43:55;4.25;;;2.88;;
82401;SDS011;72040;55.842;37.384;2023-08-24T12:46:21;4.55;;;3.10;;
82401;SDS011;72040;55.842;37.384;2023-08-24T12:48:47;5.90;;;4.55;;
82401;SDS011;72040;55.842;37.384;2023-08-24T12:51:12;5.80;;;5.15;;
82401;SDS011;72040;55.842;37.384;2023-08-24T12:53:38;8.23;;;5.72;;
82401;SDS011;72040;55.842;37.384;2023-08-24T12:56:04;6.47;;;5.45;;
82401;SDS011;72040;55.842;37.384;2023-08-24T12:58:29;8.88;;;6.20;;
82401;SDS011;72040;55.842;37.384;2023-08-24T13:00:56;7.10;;;4.60;;
82401;SDS011;72040;55.842;37.384;2023-08-24T13:03:21;5.05;;;3.65;;
82401;SDS011;72040;55.842;37.384;2023-08-24T13:05:47;5.15;;;4.10;;
82401;SDS011;72040;55.842;37.384;2023-08-24T13:08:13;4.90;;;2.85;;
82401;SDS011;72040;55.842;37.384;2023-08-24T13:10:39;7.25;;;3.38;;
82401;SDS011;72040;55.842;37.384;2023-08-24T13:13:04;5.25;;;3.65;;
82401;SDS011;72040;55.842;37.384;2023-08-24T13:15:30;7.75;;;4.50;;
82401;SDS011;72040;55.842;37.384;2023-08-24T13:17:56;6.25;;;3.83;;
82401;SDS011;72040;55.842;37.384;2023-08-24T13:20:23;4.95;;;3.58;;
82401;SDS011;72040;55.842;37.384;2023-08-24T13:22:49;5.25;;;3.83;;
82401;SDS011;72040;55.842;37.384;2023-08-24T13:25:15;6.90;;;3.88;;
82401;SDS011;72040;55.842;37.384;2023-08-24T13:27:41;6.78;;;2.72;;
82401;SDS011;72040;55.842;37.384;2023-08-24T13:30:06;6.15;;;3.60;;
82401;SDS011;72040;55.842;37.384;2023-08-24T13:32:33;6.45;;;3.97;;
82401;SDS011;72040;55.842;37.384;2023-08-24T13:35:00;6.72;;;3.90;;
82401;SDS011;72040;55.842;37.384;2023-08-24T13:37:25;5.07;;;3.67;;
82401;SDS011;72040;55.842;37.384;2023-08-24T13:39:51;11.68;;;4.63;;
82401;SDS011;72040;55.842;37.384;2023-08-24T13:42:17;5.47;;;3.35;;
82401;SDS011;72040;55.842;37.384;2023-08-24T13:44:44;5.18;;;4.00;;
82401;SDS011;72040;55.842;37.384;2023-08-24T13:47:10;3.75;;;3.20;;
82401;SDS011;72040;55.842;37.384;2023-08-24T13:49:37;7.25;;;4.20;;
82401;SDS011;72040;55.842;37.384;2023-08-24T13:52:03;4.05;;;3.60;;
82401;SDS011;72040;55.842;37.384;2023-08-24T13:54:29;4.80;;;3.38;;
82401;SDS011;72040;55.842;37.384;2023-08-24T13:56:55;4.28;;;3.33;;
82401;SDS011;72040;55.842;37.384;2023-08-24T13:59:21;4.82;;;3.65;;
82401;SDS011;72040;55.842;37.384;2023-08-24T14:01:47;7.15;;;3.47;;
82401;SDS011;72040;55.842;37.384;2023-08-24T14:04:13;5.80;;;4.28;;
82401;SDS011;72040;55.842;37.384;2023-08-24T14:06:39;5.55;;;2.80;;
82401;SDS011;72040;55.842;37.384;2023-08-24T14:09:04;5.38;;;3.38;;
82401;SDS011;72040;55.842;37.384;2023-08-24T14:11:30;8.00;;;3.13;;
82401;SDS011;72040;55.842;37.384;2023-08-24T14:13:57;5.97;;;3.35;;
82401;SDS011;72040;55.842;37.384;2023-08-24T14:16:22;5.72;;;3.45;;
82401;SDS011;72040;55.842;37.384;2023-08-24T14:18:48;7.85;;;2.85;;
82401;SDS011;72040;55.842;37.384;2023-08-24T14:21:15;8.07;;;3.40;;
82401;SDS011;72040;55.842;37.384;2023-08-24T14:23:41;9.38;;;3.13;;
82401;SDS011;72040;55.842;37.384;2023-08-24T14:26:07;4.65;;;3.45;;
82401;SDS011;72040;55.842;37.384;2023-08-24T14:28:48;5.32;;;4.13;;
82401;SDS011;72040;55.842;37.384;2023-08-24T14:31:22;5.25;;;2.72;;
82401;SDS011;72040;55.842;37.384;2023-08-24T14:33:52;5.85;;;3.58;;
82401;SDS011;72040;55.842;37.384;2023-08-24T14:36:18;3.83;;;2.92;;
82401;SDS011;72040;55.842;37.384;2023-08-24T14:38:45;3.60;;;2.90;;
82401;SDS011;72040;55.842;37.384;2023-08-24T14:41:11;4.25;;;3.13;;
82401;SDS011;72040;55.842;37.384;2023-08-24T14:43:38;5.15;;;3.22;;
82401;SDS011;72040;55.842;37.384;2023-08-24T14:46:04;3.33;;;2.13;;
82401;SDS011;72040;55.842;37.384;2023-08-24T14:48:30;4.40;;;2.97;;
82401;SDS011;72040;55.842;37.384;2023-08-24T14:50:56;5.35;;;3.15;;
82401;SDS011;72040;55.842;37.384;2023-08-24T14:53:22;4.13;;;2.65;;
82401;SDS011;72040;55.842;37.384;2023-08-24T14:55:49;4.38;;;3.03;;
82401;SDS011;72040;55.842;37.384;2023-08-24T14:58:14;4.43;;;2.92;;